Time;durP1;ratioP1;P1;durP2;ratioP2;P2;SDS_P1;SDS_P2;PMS_P1;PMS_P2;Temp;Humidity;BMP_temperature;BMP_pressure;BME280_temperature;BME280_humidity;BME280_pressure;Samples;Min_cycle;Max_cycle;Signal;HPM_P1;HPM_P2
2021/11/11 00:00:25;;;;;;;54.23;48.17;;;2.70;99.90;;;;;;5033530;28;20453;-79
2021/11/11 00:02:52;;;;;;;55.47;49.70;;;2.80;99.90;;;;;;5033341;28;20823;-80
2021/11/11 00:05:19;;;;;;;60.67;50.20;;;2.80;99.90;;;;;;5032522;28;20494;-79
2021/11/11 00:07:47;;;;;;;56.07;49.90;;;2.80;99.90;;;;;;5033379;28;20449;-79
2021/11/11 00:10:16;;;;;;;63.37;51.90;;;2.80;99.90;;;;;;5033436;28;20467;-79
2021/11/11 00:12:44;;;;;;;61.57;51.20;;;2.80;99.90;;;;;;5033012;28;20970;-77
2021/11/11 00:15:13;;;;;;;60.03;52.90;;;2.80;99.90;;;;;;5033306;28;20474;-79
2021/11/11 00:17:42;;;;;;;56.93;50.63;;;2.80;99.90;;;;;;5033132;28;20448;-78
2021/11/11 00:20:11;;;;;;;60.20;53.73;;;2.90;99.90;;;;;;5033021;28;20460;-80
2021/11/11 00:22:39;;;;;;;65.07;54.73;;;2.90;99.90;;;;;;5032887;28;20452;-80
2021/11/11 00:25:09;;;;;;;64.17;54.00;;;2.90;99.90;;;;;;5033234;28;20481;-80
2021/11/11 00:27:36;;;;;;;79.67;59.13;;;2.90;99.90;;;;;;5033057;28;20451;-81
2021/11/11 00:30:05;;;;;;;61.87;55.17;;;2.90;99.90;;;;;;5032877;28;20459;-81
2021/11/11 00:32:31;;;;;;;68.27;55.70;;;2.90;99.90;;;;;;5033028;28;20466;-82
2021/11/11 00:34:58;;;;;;;66.47;58.57;;;2.90;99.90;;;;;;5033430;28;20452;-85
2021/11/11 00:37:25;;;;;;;70.07;59.47;;;2.90;99.90;;;;;;5032872;28;20448;-83
2021/11/11 00:39:52;;;;;;;59.10;52.63;;;2.90;99.90;;;;;;5033223;28;20819;-82
2021/11/11 00:42:20;;;;;;;61.23;54.63;;;2.90;99.90;;;;;;5032748;28;20459;-83
2021/11/11 00:44:49;;;;;;;70.43;54.47;;;2.90;99.90;;;;;;5032988;28;20485;-83
2021/11/11 00:47:15;;;;;;;70.50;54.90;;;2.90;99.90;;;;;;5032970;28;20464;-82
2021/11/11 00:49:42;;;;;;;60.70;54.20;;;2.90;99.90;;;;;;5032882;28;20445;-83
2021/11/11 00:52:11;;;;;;;63.73;54.20;;;2.90;99.90;;;;;;5032875;28;20539;-83
2021/11/11 00:54:40;;;;;;;66.13;55.63;;;2.80;99.90;;;;;;5032635;28;20754;-80
2021/11/11 00:57:07;;;;;;;63.67;56.57;;;2.80;99.90;;;;;;5032600;28;20511;-78
2021/11/11 00:59:35;;;;;;;61.30;54.47;;;2.90;99.90;;;;;;5032429;28;20464;-80
2021/11/11 01:02:07;;;;;;;60.13;53.60;;;2.80;99.90;;;;;;5032331;28;20547;-81
2021/11/11 01:04:34;;;;;;;61.97;55.23;;;2.80;99.90;;;;;;5032338;28;20491;-78
2021/11/11 01:07:00;;;;;;;57.93;50.50;;;2.80;99.90;;;;;;5032120;28;20457;-78
2021/11/11 01:09:29;;;;;;;66.90;54.90;;;2.80;99.90;;;;;;5031960;28;20455;-76
2021/11/11 01:11:57;;;;;;;59.90;53.33;;;2.70;99.90;;;;;;5032064;28;20990;-77
2021/11/11 01:14:24;;;;;;;62.30;54.90;;;2.60;99.90;;;;;;5031768;28;20444;-77
2021/11/11 01:16:53;;;;;;;60.23;51.33;;;2.60;99.90;;;;;;5030932;28;20913;-79
2021/11/11 01:19:21;;;;;;;69.00;53.87;;;2.60;99.90;;;;;;5031338;28;20997;-79
2021/11/11 01:21:48;;;;;;;59.40;52.90;;;2.60;99.90;;;;;;5031489;28;20998;-80
2021/11/11 01:24:16;;;;;;;63.67;53.80;;;2.60;99.90;;;;;;5031434;28;20440;-78
2021/11/11 01:26:43;;;;;;;60.40;53.53;;;2.70;99.90;;;;;;5031694;28;20459;-78
2021/11/11 01:29:09;;;;;;;64.10;57.27;;;2.60;99.90;;;;;;5031436;28;20456;-78
2021/11/11 01:31:36;;;;;;;64.50;57.60;;;2.60;99.90;;;;;;5031459;28;20494;-78
2021/11/11 01:34:05;;;;;;;66.20;56.27;;;2.60;99.90;;;;;;5031193;28;20458;-80
2021/11/11 01:36:31;;;;;;;67.73;57.10;;;2.60;99.90;;;;;;5031550;28;20453;-79
2021/11/11 01:38:58;;;;;;;67.67;59.20;;;2.60;99.90;;;;;;5031466;28;20448;-78
2021/11/11 01:41:25;;;;;;;75.73;61.07;;;2.60;99.90;;;;;;5031419;28;20454;-78
2021/11/11 01:43:52;;;;;;;64.37;57.23;;;2.60;99.90;;;;;;5031023;28;20457;-77
2021/11/11 01:46:18;;;;;;;75.40;59.43;;;2.60;99.90;;;;;;5031035;28;20494;-79
2021/11/11 01:48:45;;;;;;;69.17;58.53;;;2.60;99.90;;;;;;5031328;28;20444;-79
2021/11/11 01:51:14;;;;;;;66.83;57.07;;;2.60;99.90;;;;;;5031117;28;20465;-78
2021/11/11 01:53:41;;;;;;;65.83;55.50;;;2.60;99.90;;;;;;5030748;28;20459;-79
2021/11/11 01:56:08;;;;;;;72.50;58.27;;;2.50;99.90;;;;;;5030870;28;20462;-79
2021/11/11 01:58:35;;;;;;;71.53;59.63;;;2.50;99.90;;;;;;5031041;28;20450;-78
2021/11/11 02:01:02;;;;;;;65.00;57.37;;;2.50;99.90;;;;;;5030957;28;20447;-76
2021/11/11 02:03:29;;;;;;;71.23;59.77;;;2.50;99.90;;;;;;5030797;28;20472;-76
2021/11/11 02:05:56;;;;;;;77.73;61.53;;;2.50;99.90;;;;;;5030678;28;20485;-76
2021/11/11 02:08:26;;;;;;;68.13;57.13;;;2.50;99.90;;;;;;5030951;28;20452;-76
2021/11/11 02:10:53;;;;;;;62.87;53.20;;;2.50;99.90;;;;;;5030787;28;20459;-77
2021/11/11 02:13:20;;;;;;;58.23;51.83;;;2.60;99.90;;;;;;5030909;28;20456;-76
2021/11/11 02:15:47;;;;;;;64.33;55.67;;;2.50;99.90;;;;;;5030406;28;20485;-77
2021/11/11 02:18:14;;;;;;;63.20;56.67;;;2.50;99.90;;;;;;5030719;28;20454;-77
2021/11/11 02:20:45;;;;;;;59.80;53.30;;;2.60;99.90;;;;;;5030551;28;20459;-76
2021/11/11 02:23:15;;;;;;;68.00;56.40;;;2.50;99.90;;;;;;5030735;28;20483;-77
2021/11/11 02:25:42;;;;;;;65.63;57.17;;;2.50;99.90;;;;;;5030290;28;20491;-76
2021/11/11 02:28:11;;;;;;;62.40;55.80;;;2.50;99.90;;;;;;5030606;28;21211;-77
2021/11/11 02:30:40;;;;;;;59.43;53.30;;;2.50;99.90;;;;;;5030454;28;20470;-76
2021/11/11 02:33:11;;;;;;;70.10;53.90;;;2.40;99.90;;;;;;5030413;28;20549;-75
2021/11/11 02:35:38;;;;;;;64.90;56.30;;;2.40;99.90;;;;;;5030619;28;20807;-76
2021/11/11 02:38:07;;;;;;;68.13;57.17;;;2.40;99.90;;;;;;5030682;28;20450;-75
2021/11/11 02:40:35;;;;;;;60.53;53.97;;;2.40;99.90;;;;;;5030356;28;20445;-75
2021/11/11 02:43:02;;;;;;;59.90;53.50;;;2.40;99.90;;;;;;5030604;28;20866;-75
2021/11/11 02:45:31;;;;;;;64.10;55.83;;;2.30;99.90;;;;;;5030391;28;20488;-76
2021/11/11 02:47:58;;;;;;;69.90;60.23;;;2.30;99.90;;;;;;5030311;28;20451;-75
2021/11/11 02:50:26;;;;;;;66.77;59.67;;;2.30;99.90;;;;;;5030328;28;20450;-75
2021/11/11 02:52:54;;;;;;;69.10;58.57;;;2.30;99.90;;;;;;5030295;28;20457;-75
2021/11/11 02:55:22;;;;;;;76.80;57.37;;;2.30;99.90;;;;;;5030288;28;20725;-75
2021/11/11 02:57:51;;;;;;;79.37;57.47;;;2.30;99.90;;;;;;5030475;28;20460;-75
2021/11/11 03:00:20;;;;;;;71.27;57.57;;;2.30;99.90;;;;;;5030085;28;20464;-75
2021/11/11 03:02:49;;;;;;;72.87;57.20;;;2.30;99.90;;;;;;5030221;28;20454;-76
2021/11/11 03:05:18;;;;;;;67.40;57.67;;;2.30;99.90;;;;;;5030098;28;20744;-85
2021/11/11 03:07:45;;;;;;;66.80;59.30;;;2.30;99.90;;;;;;5030294;28;20460;-75
2021/11/11 03:10:15;;;;;;;75.40;59.47;;;2.30;99.90;;;;;;5030311;28;20461;-76
2021/11/11 03:12:43;;;;;;;78.37;64.30;;;2.30;99.90;;;;;;5029899;28;20543;-78
2021/11/11 03:15:11;;;;;;;74.07;63.60;;;2.30;99.90;;;;;;5030007;28;20485;-79
2021/11/11 03:17:38;;;;;;;82.37;63.40;;;2.30;99.90;;;;;;5030071;28;20462;-79
2021/11/11 03:20:06;;;;;;;77.23;61.73;;;2.30;99.90;;;;;;5030005;28;20454;-80
2021/11/11 03:22:33;;;;;;;84.67;63.37;;;2.40;99.90;;;;;;5029943;28;20821;-80
2021/11/11 03:25:00;;;;;;;86.80;64.40;;;2.40;99.90;;;;;;5029769;28;20932;-78
2021/11/11 03:27:27;;;;;;;78.30;63.60;;;2.40;99.90;;;;;;5030522;28;20719;-76
2021/11/11 03:29:56;;;;;;;70.50;62.67;;;2.40;99.90;;;;;;5046452;28;20794;-76
2021/11/11 03:32:23;;;;;;;64.10;54.23;;;2.40;99.90;;;;;;5049634;28;20517;-76
2021/11/11 03:34:50;;;;;;;67.77;59.30;;;2.30;99.90;;;;;;5049555;28;20459;-75
2021/11/11 03:37:17;;;;;;;69.50;58.20;;;2.30;99.90;;;;;;5049810;28;20454;-76
2021/11/11 03:39:44;;;;;;;72.17;60.40;;;2.30;99.90;;;;;;5050514;28;20485;-76
2021/11/11 03:42:15;;;;;;;65.77;58.30;;;2.30;99.90;;;;;;5053371;28;20765;-76
2021/11/11 03:44:43;;;;;;;70.00;57.50;;;2.30;99.90;;;;;;5053168;28;20970;-76
2021/11/11 03:47:11;;;;;;;68.10;59.30;;;2.30;99.90;;;;;;5052726;28;20470;-77
2021/11/11 03:49:39;;;;;;;62.97;52.83;;;2.30;99.90;;;;;;5053047;28;20535;-76
2021/11/11 03:52:07;;;;;;;57.67;51.50;;;2.20;99.90;;;;;;5053392;28;20450;-76
2021/11/11 03:54:35;;;;;;;72.77;63.10;;;2.20;99.90;;;;;;5053073;28;20436;-76
2021/11/11 03:57:01;;;;;;;70.30;61.17;;;2.20;99.90;;;;;;5052823;28;20479;-77
2021/11/11 03:59:30;;;;;;;85.87;61.90;;;2.10;99.90;;;;;;5053022;28;20447;-77
2021/11/11 04:01:57;;;;;;;64.83;56.80;;;2.20;99.90;;;;;;5053056;28;20442;-75
2021/11/11 04:04:25;;;;;;;72.07;59.47;;;2.20;99.90;;;;;;5052775;28;20451;-74
2021/11/11 04:06:52;;;;;;;76.27;62.93;;;2.10;99.90;;;;;;5053032;28;20485;-76
2021/11/11 04:09:19;;;;;;;60.97;54.40;;;2.20;99.90;;;;;;5052681;28;20457;-77
2021/11/11 04:11:46;;;;;;;68.03;57.60;;;2.20;99.90;;;;;;5052785;28;20452;-76
2021/11/11 04:14:13;;;;;;;66.67;59.30;;;2.20;99.90;;;;;;5052786;28;20455;-75
2021/11/11 04:16:41;;;;;;;77.03;62.43;;;2.30;99.90;;;;;;5052443;28;20481;-76
2021/11/11 04:19:08;;;;;;;71.07;60.70;;;2.20;99.90;;;;;;5052579;28;20948;-75
2021/11/11 04:21:36;;;;;;;63.37;56.67;;;2.20;99.90;;;;;;5052587;28;20445;-75
2021/11/11 04:24:03;;;;;;;66.27;55.97;;;2.10;99.90;;;;;;5052794;28;20441;-77
2021/11/11 04:26:31;;;;;;;67.90;52.30;;;2.10;99.90;;;;;;5052369;28;21030;-76
2021/11/11 04:29:01;;;;;;;60.03;53.60;;;2.10;99.90;;;;;;5052428;28;20459;-76
2021/11/11 04:31:30;;;;;;;59.37;52.90;;;2.10;99.90;;;;;;5052031;28;20482;-77
2021/11/11 04:34:01;;;;;;;63.60;56.90;;;2.10;99.90;;;;;;5052352;28;20978;-76
2021/11/11 04:36:49;;;;;;;62.20;55.60;;;2.10;99.90;;;;;;5052275;28;20504;-76
2021/11/11 04:39:34;;;;;;;62.03;54.30;;;2.10;99.90;;;;;;5052409;28;20454;-76
2021/11/11 04:42:13;;;;;;;64.03;56.40;;;2.10;99.90;;;;;;5052438;28;20453;-76
2021/11/11 04:44:48;;;;;;;61.60;54.50;;;2.10;99.90;;;;;;5052227;28;20456;-77
2021/11/11 04:47:38;;;;;;;68.03;56.70;;;2.00;99.90;;;;;;5052135;28;20896;-76
2021/11/11 04:53:05;;;;;;;60.77;54.40;;;2.00;99.90;;;;;;5052386;28;20454;-77
2021/11/11 05:01:16;;;;;;;66.87;53.67;;;2.00;99.90;;;;;;5052144;28;20931;-77
2021/11/11 05:03:45;;;;;;;60.13;51.97;;;2.00;99.90;;;;;;5051926;28;20962;-77
2021/11/11 05:06:12;;;;;;;63.07;54.27;;;2.00;99.90;;;;;;5051520;28;20851;-75
2021/11/11 05:08:39;;;;;;;58.23;52.30;;;2.00;99.90;;;;;;5051841;28;20482;-76
2021/11/11 05:11:08;;;;;;;62.23;55.53;;;2.00;99.90;;;;;;5051560;28;20449;-75
2021/11/11 05:13:36;;;;;;;61.80;54.60;;;2.00;99.90;;;;;;5051850;28;20551;-75
2021/11/11 05:16:03;;;;;;;63.63;56.73;;;2.00;99.90;;;;;;5051247;28;20579;-75
2021/11/11 05:18:29;;;;;;;60.97;54.13;;;2.00;99.90;;;;;;5051560;28;20455;-76
2021/11/11 05:20:56;;;;;;;57.93;51.93;;;2.10;99.90;;;;;;5051633;28;20457;-74
2021/11/11 05:23:23;;;;;;;59.40;52.27;;;2.00;99.90;;;;;;5051543;28;20445;-77
2021/11/11 05:25:51;;;;;;;65.00;56.87;;;2.00;99.90;;;;;;5051396;28;20513;-76
2021/11/11 05:28:19;;;;;;;56.90;50.70;;;2.00;99.90;;;;;;5051165;28;20449;-76
2021/11/11 05:30:46;;;;;;;59.37;53.27;;;2.00;99.90;;;;;;5051065;28;20491;-76
2021/11/11 05:33:13;;;;;;;63.10;55.57;;;2.00;99.90;;;;;;5051385;28;20822;-76
2021/11/11 05:35:40;;;;;;;63.13;54.10;;;1.90;99.90;;;;;;5051036;28;20941;-76
2021/11/11 05:38:07;;;;;;;64.07;57.47;;;1.90;99.90;;;;;;5051270;28;20452;-76
2021/11/11 05:40:34;;;;;;;65.10;55.00;;;1.90;99.90;;;;;;5050927;28;20454;-76
2021/11/11 05:43:01;;;;;;;61.40;55.00;;;1.90;99.90;;;;;;5051096;28;20484;-76
2021/11/11 05:45:29;;;;;;;61.87;54.97;;;1.90;99.90;;;;;;5051238;28;20452;-76
2021/11/11 05:47:56;;;;;;;64.93;55.90;;;1.90;99.90;;;;;;5050612;28;20467;-77
2021/11/11 05:50:23;;;;;;;59.17;52.77;;;2.00;99.90;;;;;;5050881;28;20452;-76
2021/11/11 05:52:50;;;;;;;60.23;53.63;;;1.90;99.90;;;;;;5051036;28;20446;-76
2021/11/11 05:55:17;;;;;;;63.87;53.40;;;2.00;99.90;;;;;;5051182;28;20470;-76
2021/11/11 05:57:44;;;;;;;58.90;52.73;;;2.00;99.90;;;;;;5050503;28;20450;-77
2021/11/11 06:00:14;;;;;;;67.10;56.60;;;1.90;99.90;;;;;;5050732;28;20454;-76
2021/11/11 06:02:43;;;;;;;68.20;59.63;;;1.90;99.90;;;;;;5050253;28;20444;-77
2021/11/11 06:05:10;;;;;;;75.80;62.40;;;1.90;99.90;;;;;;5050730;28;20535;-78
2021/11/11 06:07:37;;;;;;;69.67;62.20;;;1.90;99.90;;;;;;5050549;28;20892;-79
2021/11/11 06:10:06;;;;;;;66.70;59.50;;;1.80;99.90;;;;;;5050797;28;20461;-81
2021/11/11 06:12:33;;;;;;;67.63;58.20;;;1.70;99.90;;;;;;5050885;28;20463;-76
2021/11/11 06:15:00;;;;;;;67.40;57.40;;;1.80;99.90;;;;;;5050371;28;20647;-75
2021/11/11 06:17:27;;;;;;;69.67;59.47;;;1.80;99.90;;;;;;5050670;28;20499;-75
2021/11/11 06:19:56;;;;;;;64.77;58.03;;;1.80;99.90;;;;;;5050505;28;20455;-75
2021/11/11 06:22:23;;;;;;;68.77;59.27;;;1.90;99.90;;;;;;5050523;28;20870;-74
2021/11/11 06:24:49;;;;;;;67.07;59.77;;;1.90;99.90;;;;;;5050505;28;20453;-74
2021/11/11 06:27:18;;;;;;;68.87;60.37;;;1.90;99.90;;;;;;5050525;28;20491;-73
2021/11/11 06:29:45;;;;;;;67.80;59.83;;;1.90;99.90;;;;;;5050402;28;20457;-74
2021/11/11 06:32:11;;;;;;;71.73;63.57;;;2.00;99.90;;;;;;5050442;28;20446;-75
2021/11/11 06:34:38;;;;;;;70.50;60.63;;;2.00;99.90;;;;;;5050288;28;20459;-73
2021/11/11 06:37:06;;;;;;;68.50;58.67;;;2.00;99.90;;;;;;5050730;28;20453;-74
2021/11/11 06:39:33;;;;;;;67.00;59.97;;;2.00;99.90;;;;;;5050339;28;20509;-74
2021/11/11 06:42:00;;;;;;;66.97;59.67;;;2.00;99.90;;;;;;5050485;28;20454;-74
2021/11/11 06:44:26;;;;;;;64.90;58.10;;;2.00;99.90;;;;;;5050320;28;20454;-74
2021/11/11 06:46:53;;;;;;;69.30;57.20;;;2.00;99.90;;;;;;5050519;28;20480;-75
2021/11/11 06:49:20;;;;;;;64.70;57.80;;;1.90;99.90;;;;;;5050458;28;20456;-74
2021/11/11 06:51:47;;;;;;;59.80;53.60;;;1.90;99.90;;;;;;5050645;28;20449;-73
2021/11/11 06:54:15;;;;;;;59.80;53.70;;;1.80;99.90;;;;;;5050356;28;20867;-74
2021/11/11 06:56:42;;;;;;;63.03;54.90;;;1.80;99.90;;;;;;5050487;28;20445;-74
2021/11/11 06:59:09;;;;;;;60.40;54.00;;;1.90;99.90;;;;;;5050510;28;20452;-74
2021/11/11 07:01:35;;;;;;;59.37;53.27;;;1.90;99.90;;;;;;5050162;28;20469;-74
2021/11/11 07:04:02;;;;;;;63.23;54.70;;;2.00;99.90;;;;;;5050672;28;20453;-74
2021/11/11 07:06:29;;;;;;;60.63;54.33;;;2.10;99.90;;;;;;5050347;28;20493;-74
2021/11/11 07:08:55;;;;;;;66.90;56.07;;;2.20;99.90;;;;;;5050320;28;20446;-74
2021/11/11 07:11:24;;;;;;;69.47;56.90;;;2.30;99.90;;;;;;5049948;28;20457;-73
2021/11/11 07:13:51;;;;;;;89.17;60.97;;;2.40;99.90;;;;;;5050239;28;20450;-74
2021/11/11 07:16:17;;;;;;;72.20;59.27;;;2.60;99.90;;;;;;5053671;28;20476;-73
2021/11/11 07:18:44;;;;;;;85.63;63.60;;;2.80;99.90;;;;;;5053937;28;20514;-73
2021/11/11 07:21:11;;;;;;;83.87;63.37;;;3.00;99.90;;;;;;5054087;28;20474;-73
2021/11/11 07:23:38;;;;;;;71.87;59.13;;;3.20;99.90;;;;;;5053968;28;20968;-72
2021/11/11 07:26:04;;;;;;;80.50;64.57;;;3.50;99.90;;;;;;5053922;28;20456;-72
2021/11/11 07:28:32;;;;;;;71.83;63.93;;;3.70;99.90;;;;;;5053845;28;20447;-72
2021/11/11 07:30:59;;;;;;;78.27;61.60;;;3.70;99.90;;;;;;5053940;28;20472;-72
2021/11/11 07:33:26;;;;;;;70.20;56.90;;;3.80;99.90;;;;;;5053777;28;20458;-72
2021/11/11 07:35:53;;;;;;;55.90;49.13;;;3.80;99.90;;;;;;5053457;28;20461;-73
2021/11/11 07:38:20;;;;;;;59.80;52.27;;;3.80;99.90;;;;;;5051276;28;20452;-73
2021/11/11 07:40:47;;;;;;;52.37;47.00;;;3.90;99.90;;;;;;5046840;28;20465;-72
2021/11/11 07:43:14;;;;;;;49.53;44.53;;;4.00;99.90;;;;;;5033526;28;20982;-72
2021/11/11 07:45:42;;;;;;;47.20;42.73;;;4.30;99.90;;;;;;5033844;28;20455;-72
2021/11/11 07:48:09;;;;;;;46.80;42.40;;;4.50;99.90;;;;;;5033408;28;20486;-71
2021/11/11 07:50:39;;;;;;;42.67;38.87;;;4.70;99.90;;;;;;5033295;28;20458;-71
2021/11/11 07:53:09;;;;;;;43.73;40.03;;;4.70;99.90;;;;;;5033410;28;20457;-72
2021/11/11 07:55:38;;;;;;;40.77;37.13;;;4.70;99.90;;;;;;5033371;28;20482;-71
2021/11/11 07:58:05;;;;;;;40.30;36.57;;;5.00;99.90;;;;;;5033300;28;20445;-72
2021/11/11 08:00:32;;;;;;;39.90;36.20;;;5.00;99.90;;;;;;5033430;28;20475;-72
2021/11/11 08:03:00;;;;;;;39.47;36.13;;;5.20;99.90;;;;;;5033096;28;20462;-72
2021/11/11 08:05:27;;;;;;;37.63;34.63;;;5.50;99.90;;;;;;5033127;28;20459;-71
2021/11/11 08:07:54;;;;;;;37.13;34.03;;;5.50;99.90;;;;;;5032982;28;20488;-71
2021/11/11 08:10:21;;;;;;;34.47;31.07;;;5.40;99.90;;;;;;5033143;28;20448;-72
2021/11/11 08:12:48;;;;;;;32.50;30.10;;;5.60;99.90;;;;;;5033075;28;20450;-71
2021/11/11 08:15:16;;;;;;;35.37;32.33;;;5.80;99.90;;;;;;5032911;28;21006;-72
2021/11/11 08:17:43;;;;;;;35.70;32.20;;;6.50;99.90;;;;;;5032932;28;20786;-72
2021/11/11 08:20:14;;;;;;;29.70;27.30;;;7.60;99.90;;;;;;5033194;28;20939;-72
2021/11/11 08:22:42;;;;;;;30.90;28.30;;;8.70;99.90;;;;;;5032888;28;20446;-72
2021/11/11 08:25:10;;;;;;;28.93;26.43;;;9.50;99.90;;;;;;5032347;28;20455;-71
2021/11/11 08:27:38;;;;;;;30.13;27.67;;;10.30;99.90;;;;;;5032623;28;20496;-75
2021/11/11 08:30:06;;;;;;;28.07;25.97;;;11.10;99.90;;;;;;5032615;28;20465;-75
2021/11/11 08:32:34;;;;;;;28.93;26.70;;;11.80;99.90;;;;;;5032940;28;20753;-76
2021/11/11 08:35:00;;;;;;;28.60;26.33;;;12.30;99.90;;;;;;5032678;28;20453;-76
2021/11/11 08:37:28;;;;;;;30.50;27.90;;;12.30;99.90;;;;;;5032424;28;20781;-81
2021/11/11 08:39:56;;;;;;;29.10;26.70;;;12.80;99.90;;;;;;5031631;28;20808;-77
2021/11/11 08:42:22;;;;;;;28.77;26.17;;;13.20;99.90;;;;;;5032700;28;20229;-78
2021/11/11 08:44:51;;;;;;;30.87;28.50;;;13.80;99.90;;;;;;5032480;28;20453;-72
2021/11/11 08:47:19;;;;;;;31.07;28.53;;;14.00;98.50;;;;;;5032447;28;21025;-74
2021/11/11 08:49:48;;;;;;;29.90;27.27;;;13.80;99.80;;;;;;5030753;28;20464;-74
2021/11/11 08:52:16;;;;;;;30.73;28.37;;;13.40;98.80;;;;;;5032114;28;20548;-74
2021/11/11 08:54:44;;;;;;;30.27;27.90;;;13.60;99.50;;;;;;5031481;28;20453;-74
2021/11/11 08:57:12;;;;;;;30.17;27.90;;;13.90;97.70;;;;;;5031909;28;20449;-74
2021/11/11 08:59:39;;;;;;;29.50;27.23;;;14.30;96.60;;;;;;5031785;28;20445;-74
2021/11/11 09:02:07;;;;;;;30.70;28.20;;;14.20;97.30;;;;;;5031846;28;20457;-74
2021/11/11 09:04:33;;;;;;;28.90;26.60;;;15.00;95.00;;;;;;5031557;28;20457;-73
2021/11/11 09:07:00;;;;;;;29.30;26.90;;;15.00;94.60;;;;;;5031608;28;20485;-74
2021/11/11 09:09:27;;;;;;;30.17;27.93;;;14.80;93.20;;;;;;5031717;28;20555;-74
2021/11/11 09:11:56;;;;;;;29.80;27.40;;;15.20;93.20;;;;;;5031581;28;20445;-74
2021/11/11 09:14:23;;;;;;;28.70;26.30;;;14.10;93.50;;;;;;5031452;28;20460;-74
2021/11/11 09:16:49;;;;;;;29.23;26.93;;;14.10;95.40;;;;;;5031429;28;20449;-74
2021/11/11 09:19:16;;;;;;;27.23;24.97;;;13.90;94.00;;;;;;5031242;28;20460;-74
2021/11/11 09:21:44;;;;;;;30.57;27.97;;;14.60;94.70;;;;;;5031254;28;20573;-75
2021/11/11 09:24:11;;;;;;;30.97;28.50;;;15.20;93.20;;;;;;5030953;28;20825;-74
2021/11/11 09:26:38;;;;;;;30.83;28.13;;;15.30;91.90;;;;;;5031119;28;20579;-75
2021/11/11 09:29:07;;;;;;;27.03;24.90;;;15.70;91.90;;;;;;5031067;28;20958;-75
2021/11/11 09:31:34;;;;;;;29.70;27.40;;;14.90;92.30;;;;;;5031033;28;20468;-76
2021/11/11 09:34:01;;;;;;;31.10;28.50;;;15.30;92.70;;;;;;5031077;28;20460;-74
2021/11/11 09:36:28;;;;;;;29.33;26.83;;;15.40;92.30;;;;;;5030980;28;20448;-75
2021/11/11 09:38:55;;;;;;;30.50;27.50;;;15.70;92.00;;;;;;5030692;28;20623;-75
2021/11/11 09:41:24;;;;;;;30.97;28.07;;;16.20;91.20;;;;;;5031046;28;20456;-74
2021/11/11 09:43:51;;;;;;;30.20;27.60;;;15.80;91.70;;;;;;5030891;28;20455;-76
2021/11/11 09:46:20;;;;;;;29.90;27.63;;;15.40;92.50;;;;;;5031004;28;20461;-75
2021/11/11 09:48:48;;;;;;;29.50;26.87;;;15.80;91.50;;;;;;5030803;28;20525;-75
2021/11/11 09:51:18;;;;;;;29.20;26.73;;;15.90;91.40;;;;;;5030867;28;20453;-75
2021/11/11 09:53:55;;;;;;;29.73;27.10;;;16.30;90.60;;;;;;5030655;28;20515;-77
2021/11/11 09:59:06;;;;;;;31.40;29.00;;;16.20;90.70;;;;;;5030543;28;20428;-75
2021/11/11 10:01:34;;;;;;;29.13;26.83;;;16.50;90.30;;;;;;5030583;28;20452;-75
2021/11/11 10:04:02;;;;;;;28.90;26.70;;;16.70;90.30;;;;;;5030516;28;20437;-75
2021/11/11 10:06:30;;;;;;;30.70;28.27;;;16.90;88.00;;;;;;5030853;28;20453;-75
2021/11/11 10:08:59;;;;;;;30.10;27.67;;;17.10;88.80;;;;;;5030450;28;20500;-75
2021/11/11 10:11:32;;;;;;;28.97;26.57;;;16.10;90.10;;;;;;5030597;28;20449;-75
2021/11/11 10:14:01;;;;;;;29.63;27.03;;;15.70;90.80;;;;;;5030531;28;20457;-75
2021/11/11 10:16:29;;;;;;;32.50;29.60;;;15.20;91.80;;;;;;5030417;28;20485;-76
2021/11/11 10:18:58;;;;;;;29.07;26.70;;;15.20;91.40;;;;;;5030275;28;20549;-72
2021/11/11 10:21:33;;;;;;;29.67;27.30;;;15.20;92.00;;;;;;5030335;28;20453;-73
2021/11/11 10:24:15;;;;;;;28.00;25.73;;;15.20;91.80;;;;;;5030099;28;20736;-73
2021/11/11 10:26:44;;;;;;;30.80;28.00;;;15.40;91.70;;;;;;5030192;28;20441;-75
2021/11/11 10:29:30;;;;;;;28.77;26.40;;;15.90;91.30;;;;;;5030051;28;20491;-72
2021/11/11 10:32:03;;;;;;;27.30;25.23;;;15.70;91.30;;;;;;5030156;28;20484;-75
2021/11/11 10:34:32;;;;;;;27.23;25.13;;;16.10;90.80;;;;;;5030272;28;20938;-77
2021/11/11 10:36:59;;;;;;;27.93;25.80;;;16.80;90.10;;;;;;5030150;28;20449;-76
2021/11/11 10:39:29;;;;;;;28.43;26.13;;;17.30;89.60;;;;;;5030159;28;21180;-76
2021/11/11 10:41:58;;;;;;;29.93;27.63;;;16.90;90.00;;;;;;5030267;28;20453;-77
2021/11/11 10:44:31;;;;;;;29.13;27.00;;;17.20;88.20;;;;;;5030004;28;20453;-76
2021/11/11 10:47:00;;;;;;;29.13;26.80;;;16.20;90.20;;;;;;5030065;28;20457;-76
2021/11/11 10:49:36;;;;;;;29.33;27.07;;;17.10;89.90;;;;;;5032378;28;20453;-76
2021/11/11 10:52:27;;;;;;;31.07;28.03;;;17.70;88.00;;;;;;5034148;28;20515;-76
2021/11/11 10:55:11;;;;;;;29.60;27.20;;;18.10;86.30;;;;;;5034059;28;20452;-75
2021/11/11 10:57:44;;;;;;;29.47;27.23;;;18.60;81.80;;;;;;5034180;28;20449;-76
2021/11/11 11:00:18;;;;;;;30.17;27.77;;;19.00;82.80;;;;;;5033923;28;20835;-75
2021/11/11 11:03:01;;;;;;;30.47;28.00;;;19.20;81.40;;;;;;5033831;28;20440;-76
2021/11/11 11:05:33;;;;;;;30.00;27.53;;;19.90;80.20;;;;;;5034024;28;20510;-76
2021/11/11 11:08:06;;;;;;;31.07;28.70;;;20.20;76.40;;;;;;5033828;28;20488;-76
2021/11/11 11:10:35;;;;;;;30.00;27.60;;;20.20;77.40;;;;;;5033883;28;20444;-74
2021/11/11 11:13:07;;;;;;;30.40;28.10;;;19.80;76.80;;;;;;5033915;28;21018;-75
2021/11/11 11:15:37;;;;;;;30.80;27.73;;;19.80;76.70;;;;;;5033574;28;20484;-75
2021/11/11 11:18:05;;;;;;;30.70;28.20;;;19.20;76.80;;;;;;5033451;28;20479;-75
2021/11/11 11:20:33;;;;;;;28.87;26.67;;;19.10;78.50;;;;;;5033592;28;20887;-75
2021/11/11 11:23:18;;;;;;;30.70;27.50;;;19.10;78.60;;;;;;5033752;28;20445;-76
2021/11/11 11:26:02;;;;;;;29.23;27.20;;;19.50;77.10;;;;;;5033498;28;20484;-75
2021/11/11 11:29:07;;;;;;;28.13;26.20;;;19.80;76.70;;;;;;5033273;28;20495;-75
2021/11/11 11:31:42;;;;;;;29.70;27.60;;;19.60;75.90;;;;;;5029951;28;20491;-75
2021/11/11 11:34:12;;;;;;;28.90;26.50;;;19.20;76.70;;;;;;5033347;28;20543;-75
2021/11/11 11:36:44;;;;;;;28.43;26.33;;;19.30;77.10;;;;;;5033270;28;20452;-76
2021/11/11 11:39:19;;;;;;;31.93;28.47;;;18.50;79.00;;;;;;5033185;28;21016;-76
2021/11/11 11:41:46;;;;;;;29.73;27.20;;;18.70;79.90;;;;;;5033100;28;20814;-76
2021/11/11 11:44:19;;;;;;;27.53;25.30;;;18.60;78.80;;;;;;5032989;28;21005;-76
2021/11/11 11:46:54;;;;;;;29.43;26.90;;;18.30;79.40;;;;;;5032982;28;20541;-74
2021/11/11 11:49:22;;;;;;;28.97;26.60;;;17.90;80.10;;;;;;5032808;28;20525;-76
2021/11/11 11:51:51;;;;;;;27.67;25.47;;;17.40;82.90;;;;;;5032884;28;20499;-76
2021/11/11 11:54:24;;;;;;;29.00;26.50;;;18.20;81.10;;;;;;5032856;28;20827;-76
2021/11/11 11:56:55;;;;;;;27.63;25.80;;;18.90;79.90;;;;;;5032799;28;20453;-76
2021/11/11 11:59:25;;;;;;;28.73;26.40;;;18.40;79.80;;;;;;5032799;28;20918;-76
2021/11/11 12:02:07;;;;;;;29.30;27.10;;;17.90;81.00;;;;;;5032212;28;20453;-77
2021/11/11 12:04:56;;;;;;;28.73;26.23;;;18.00;82.10;;;;;;5032970;28;20468;-75
2021/11/11 12:07:52;;;;;;;29.83;27.83;;;17.70;81.90;;;;;;5032787;28;20449;-75
2021/11/11 12:10:35;;;;;;;29.37;26.80;;;17.30;82.70;;;;;;5032854;28;20538;-75
2021/11/11 12:16:01;;;;;;;30.40;27.87;;;16.40;88.00;;;;;;5032569;28;20503;-76
2021/11/11 12:38:38;;;;;;;31.80;28.63;;;15.20;91.20;;;;;;5032509;28;20471;-75
2021/11/11 12:41:12;;;;;;;29.10;26.70;;;14.60;92.70;;;;;;5032254;28;20519;-75
2021/11/11 12:43:39;;;;;;;30.00;27.37;;;14.40;93.50;;;;;;5032037;28;20803;-75
2021/11/11 12:46:07;;;;;;;35.07;27.77;;;14.00;93.80;;;;;;5032193;28;20445;-76
2021/11/11 12:48:33;;;;;;;31.87;28.97;;;13.30;95.20;;;;;;5032104;28;20831;-75
2021/11/11 12:51:06;;;;;;;30.67;28.00;;;12.10;98.10;;;;;;5032233;28;20460;-75
2021/11/11 12:53:39;;;;;;;31.13;28.47;;;11.50;99.90;;;;;;5032023;28;20444;-75
2021/11/11 12:56:36;;;;;;;31.43;28.73;;;11.20;99.90;;;;;;5032152;28;20459;-76
2021/11/11 12:59:14;;;;;;;33.70;30.73;;;10.60;99.90;;;;;;5032005;28;20449;-75
2021/11/11 13:01:53;;;;;;;30.47;27.77;;;10.30;99.90;;;;;;5032099;28;20835;-75
2021/11/11 13:04:22;;;;;;;32.97;29.77;;;10.10;99.90;;;;;;5031717;28;20507;-75
2021/11/11 13:06:50;;;;;;;32.57;29.57;;;9.80;99.90;;;;;;5031971;28;20810;-76
2021/11/11 13:09:33;;;;;;;32.60;29.30;;;9.90;99.90;;;;;;5031663;28;20516;-75
2021/11/11 13:12:18;;;;;;;32.10;28.97;;;9.80;99.90;;;;;;5031839;28;20813;-76
2021/11/11 13:15:02;;;;;;;33.43;30.37;;;9.80;99.90;;;;;;5031520;28;20495;-75
2021/11/11 13:17:36;;;;;;;34.27;30.93;;;9.60;99.90;;;;;;5031508;28;20449;-75